createdAt,value
2023-01-22T00:03:21.749Z,96.92
2023-01-22T00:08:14.440Z,97.36
2023-01-22T00:13:07.152Z,97.26
2023-01-22T00:17:59.847Z,96.90
2023-01-22T00:22:52.507Z,97.11
2023-01-22T00:27:45.180Z,97.13
2023-01-22T00:32:37.923Z,97.02
2023-01-22T00:37:30.705Z,96.86
2023-01-22T00:42:23.399Z,96.87
2023-01-22T00:47:16.113Z,96.84
2023-01-22T00:52:08.833Z,96.93
2023-01-22T00:57:01.566Z,96.85
2023-01-22T01:01:55.953Z,96.74
2023-01-22T01:06:48.642Z,96.87
2023-01-22T01:11:41.519Z,96.62
2023-01-22T01:16:34.347Z,96.82
2023-01-22T01:21:29.087Z,96.96
2023-01-22T01:26:21.758Z,96.58
2023-01-22T01:31:16.216Z,96.81
2023-01-22T01:36:11.638Z,96.44
2023-01-22T01:41:04.721Z,96.76
2023-01-22T01:46:00.757Z,96.76
2023-01-22T01:51:06.093Z,96.67
2023-01-22T01:55:59.302Z,96.51
2023-01-22T02:00:53.057Z,96.81
2023-01-22T02:05:45.973Z,96.60
2023-01-22T02:10:39.157Z,96.80
2023-01-22T02:15:31.959Z,96.87
2023-01-22T02:20:24.685Z,96.88
2023-01-22T02:25:18.139Z,97.12
2023-01-22T02:30:11.572Z,96.56
2023-01-22T02:35:04.326Z,96.60
2023-01-22T02:39:57.081Z,96.73
2023-01-22T02:44:53.145Z,96.46
2023-01-22T02:49:45.935Z,96.60
2023-01-22T02:54:38.676Z,96.87
2023-01-22T02:59:31.374Z,96.58
2023-01-22T03:04:24.165Z,96.68
2023-01-22T03:09:18.183Z,96.58
2023-01-22T03:14:28.679Z,96.57
2023-01-22T03:19:39.819Z,96.67
2023-01-22T03:24:37.547Z,96.55
2023-01-22T03:29:30.789Z,96.65
2023-01-22T03:34:24.489Z,96.50
2023-01-22T03:39:18.739Z,96.72
2023-01-22T03:44:11.937Z,96.66
2023-01-22T03:49:05.135Z,96.44
2023-01-22T03:53:59.440Z,96.42
2023-01-22T03:58:52.762Z,96.63
2023-01-22T04:03:46.159Z,96.47
2023-01-22T04:08:40.284Z,96.61
2023-01-22T04:13:34.265Z,96.34
2023-01-22T04:18:27.190Z,96.32
2023-01-22T04:23:32.592Z,96.49
2023-01-22T04:28:26.545Z,96.09
2023-01-22T04:33:21.586Z,96.08
2023-01-22T04:38:27.153Z,96.15
2023-01-22T04:43:20.311Z,96.35
2023-01-22T04:48:15.898Z,95.98
2023-01-22T04:53:09.409Z,96.21
2023-01-22T04:58:02.457Z,95.93
2023-01-22T05:03:03.146Z,96.03
2023-01-22T05:07:56.908Z,96.31
2023-01-22T05:12:49.824Z,96.50
2023-01-22T05:17:43.686Z,96.09
2023-01-22T05:22:36.462Z,96.36
2023-01-22T05:27:29.468Z,96.18
2023-01-22T05:32:34.038Z,96.45
2023-01-22T05:37:27.572Z,96.16
2023-01-22T05:42:21.106Z,96.36
2023-01-22T05:47:16.102Z,96.46
2023-01-22T05:52:11.778Z,96.23
2023-01-22T05:57:05.466Z,96.50
2023-01-22T06:01:58.691Z,96.45
2023-01-22T06:06:52.255Z,96.41
2023-01-22T06:11:46.168Z,96.29
2023-01-22T06:16:39.522Z,96.48
2023-01-22T06:21:36.298Z,96.21
2023-01-22T06:26:29.251Z,96.25
2023-01-22T06:31:22.581Z,96.17
2023-01-22T06:36:15.432Z,96.30
2023-01-22T06:41:08.822Z,96.20
2023-01-22T06:46:03.984Z,96.33
2023-01-22T06:51:09.693Z,96.07
2023-01-22T06:56:02.746Z,96.11
2023-01-22T07:00:55.667Z,96.16
2023-01-22T07:05:48.367Z,95.85
2023-01-22T07:10:41.137Z,95.96
2023-01-22T07:15:33.817Z,95.75
2023-01-22T07:20:26.556Z,95.97
2023-01-22T07:25:20.025Z,95.71
2023-01-22T07:30:12.964Z,95.70
2023-01-22T07:35:06.030Z,95.35
2023-01-22T07:39:58.703Z,95.56
2023-01-22T07:44:51.386Z,95.63
2023-01-22T07:49:44.106Z,95.61
2023-01-22T07:54:37.446Z,94.94
2023-01-22T07:59:30.246Z,95.22
2023-01-22T08:04:22.935Z,94.86
2023-01-22T08:09:16.694Z,94.89
2023-01-22T08:14:09.383Z,94.86
2023-01-22T08:19:02.544Z,94.48
2023-01-22T08:23:55.250Z,94.38
2023-01-22T08:28:48.022Z,94.55
2023-01-22T08:33:41.321Z,94.20
2023-01-22T08:38:34.023Z,94.05
2023-01-22T08:43:27.103Z,93.86
2023-01-22T08:48:19.769Z,93.86
2023-01-22T08:53:12.482Z,93.71
2023-01-22T08:58:05.229Z,93.75
2023-01-22T09:02:58.937Z,93.33
2023-01-22T09:07:51.636Z,93.49
2023-01-22T09:12:44.437Z,93.35
2023-01-22T09:17:37.110Z,93.41
2023-01-22T09:22:29.838Z,93.25
2023-01-22T09:27:22.507Z,92.95
2023-01-22T09:32:15.523Z,92.94
2023-01-22T09:37:08.386Z,92.52
2023-01-22T09:42:02.422Z,92.09
2023-01-22T09:47:01.191Z,92.19
2023-01-22T09:51:58.277Z,92.13
2023-01-22T09:56:52.700Z,91.89
2023-01-22T10:01:58.970Z,92.01
2023-01-22T10:06:52.497Z,91.87
2023-01-22T10:11:47.590Z,92.01
2023-01-22T10:16:40.456Z,91.55
2023-01-22T10:21:50.194Z,91.53
2023-01-22T10:26:50.027Z,91.17
2023-01-22T10:31:49.544Z,91.26
2023-01-22T10:36:47.785Z,91.01
2023-01-22T10:41:41.514Z,90.83
2023-01-22T10:46:34.262Z,90.90
2023-01-22T10:51:32.762Z,90.81
2023-01-22T10:56:31.283Z,90.67
2023-01-22T11:01:33.219Z,90.39
2023-01-22T11:06:28.802Z,90.61
2023-01-22T11:11:25.955Z,90.53
2023-01-22T11:16:23.038Z,90.33
2023-01-22T11:21:17.251Z,90.34
2023-01-22T11:26:29.286Z,90.42
2023-01-22T11:31:30.238Z,90.24
2023-01-22T11:36:43.111Z,90.26
2023-01-22T11:41:51.824Z,90.42
2023-01-22T11:46:53.228Z,90.07
2023-01-22T11:52:22.183Z,90.41
2023-01-22T11:57:18.282Z,90.19
2023-01-22T12:02:49.781Z,90.10
2023-01-22T12:07:42.704Z,90.16
2023-01-22T12:12:46.920Z,90.34
2023-01-22T12:17:46.976Z,90.35
2023-01-22T12:22:39.603Z,89.91
2023-01-22T12:27:40.767Z,90.03
2023-01-22T12:32:35.076Z,89.92
2023-01-22T12:37:30.996Z,89.87
2023-01-22T12:42:26.731Z,90.14
2023-01-22T12:47:19.400Z,90.17
2023-01-22T12:52:27.890Z,90.20
2023-01-22T12:57:20.900Z,90.15
2023-01-22T13:02:22.762Z,90.05
2023-01-22T13:07:30.715Z,90.09
2023-01-22T13:12:27.579Z,90.39
2023-01-22T13:17:22.495Z,90.05
2023-01-22T13:22:16.828Z,89.69
2023-01-22T13:27:22.058Z,89.83
2023-01-22T13:32:22.915Z,89.56
2023-01-22T13:37:25.977Z,89.69
2023-01-22T13:42:18.887Z,89.44
2023-01-22T13:47:26.192Z,89.35
2023-01-22T13:52:20.332Z,89.51
2023-01-22T13:57:17.343Z,89.46
2023-01-22T14:02:29.512Z,89.33
2023-01-22T14:07:26.338Z,89.53
2023-01-22T14:12:20.546Z,89.33
2023-01-22T14:17:24.063Z,89.57
2023-01-22T14:22:16.813Z,89.64
2023-01-22T14:27:09.578Z,89.92
2023-01-22T14:32:02.907Z,89.62
2023-01-22T14:36:55.600Z,89.90
2023-01-22T14:41:51.442Z,89.98
2023-01-22T14:46:44.291Z,89.96
2023-01-22T14:51:37.088Z,89.75
2023-01-22T14:56:29.861Z,89.72
2023-01-22T15:01:23.347Z,89.78
2023-01-22T15:06:16.948Z,89.88
2023-01-22T15:11:09.896Z,89.64
2023-01-22T15:16:07.422Z,89.80
2023-01-22T15:21:00.191Z,90.23
2023-01-22T15:26:00.186Z,90.13
2023-01-22T15:30:53.870Z,90.11
2023-01-22T15:35:47.160Z,90.23
2023-01-22T15:40:39.909Z,90.33
2023-01-22T15:45:33.094Z,90.13
2023-01-22T15:50:27.267Z,90.24
2023-01-22T15:55:20.619Z,90.04
2023-01-22T16:05:08.538Z,90.21
2023-01-22T16:10:01.566Z,90.40
2023-01-22T16:14:54.543Z,90.33
2023-01-22T16:19:50.495Z,90.51
2023-01-22T16:24:43.480Z,90.50
2023-01-22T16:29:36.405Z,90.71
2023-01-22T16:34:29.333Z,90.84
2023-01-22T16:39:25.994Z,90.75
2023-01-22T16:44:24.666Z,91.04
2023-01-22T16:49:29.864Z,90.97
2023-01-22T16:54:28.099Z,90.98
2023-01-22T16:59:21.624Z,91.07
2023-01-22T17:04:15.047Z,91.27
2023-01-22T17:09:09.236Z,91.08
2023-01-22T17:14:02.971Z,91.29
2023-01-22T17:18:59.129Z,91.48
2023-01-22T17:23:51.917Z,91.48
2023-01-22T17:28:46.075Z,91.81
2023-01-22T17:33:38.910Z,91.77
2023-01-22T17:38:37.412Z,92.04
2023-01-22T17:43:31.595Z,91.96
2023-01-22T17:48:24.403Z,91.93
2023-01-22T17:53:17.177Z,92.30
2023-01-22T17:58:10.022Z,92.26
2023-01-22T18:03:02.839Z,92.38
2023-01-22T18:07:55.662Z,92.32
2023-01-22T18:12:49.257Z,92.63
2023-01-22T18:17:42.153Z,92.76
2023-01-22T18:22:34.934Z,92.62
2023-01-22T18:27:28.851Z,92.44
2023-01-22T18:32:22.619Z,92.51
2023-01-22T18:37:15.643Z,92.90
2023-01-22T18:42:08.669Z,92.79
2023-01-22T18:47:02.246Z,92.84
2023-01-22T18:51:59.405Z,92.72
2023-01-22T18:56:52.226Z,92.87
2023-01-22T19:01:51.386Z,92.90
2023-01-22T19:06:48.135Z,92.78
2023-01-22T19:11:45.447Z,92.83
2023-01-22T19:16:39.798Z,92.92
2023-01-22T19:21:33.027Z,92.82
2023-01-22T19:26:31.309Z,92.97
2023-01-22T19:31:29.996Z,93.25
2023-01-22T19:36:24.627Z,93.22
2023-01-22T19:41:19.101Z,92.92
2023-01-22T19:46:14.085Z,93.06
2023-01-22T19:51:13.193Z,93.22
2023-01-22T19:56:15.403Z,93.07
2023-01-22T20:01:13.317Z,93.29
2023-01-22T20:06:09.773Z,93.22
2023-01-22T20:11:03.810Z,93.15
2023-01-22T20:15:57.744Z,93.41
2023-01-22T20:20:54.201Z,93.43
2023-01-22T20:25:47.083Z,93.27
2023-01-22T20:30:40.419Z,93.16
2023-01-22T20:35:33.261Z,93.34
2023-01-22T20:40:26.906Z,93.03
2023-01-22T20:45:20.509Z,93.32
2023-01-22T20:50:13.732Z,92.99
2023-01-22T20:55:07.145Z,93.12
2023-01-22T21:00:00.020Z,93.39
2023-01-22T21:04:53.971Z,93.00
2023-01-22T21:09:47.486Z,93.27
2023-01-22T21:14:40.944Z,93.40
2023-01-22T21:19:33.777Z,93.54
2023-01-22T21:24:26.670Z,93.16
2023-01-22T21:29:24.247Z,93.22
2023-01-22T21:34:21.311Z,93.14
2023-01-22T21:39:17.428Z,93.12
2023-01-22T21:44:32.840Z,93.25
2023-01-22T21:49:25.774Z,93.15
2023-01-22T21:54:26.344Z,93.49
2023-01-22T21:59:19.404Z,93.29
2023-01-22T22:04:13.864Z,93.14
2023-01-22T22:09:19.927Z,93.30
2023-01-22T22:14:13.712Z,93.41
2023-01-22T22:19:07.983Z,93.24
2023-01-22T22:24:00.841Z,93.11
2023-01-22T22:28:53.991Z,93.37
2023-01-22T22:33:49.473Z,93.22
2023-01-22T22:38:43.672Z,93.63
2023-01-22T22:43:39.214Z,93.63
2023-01-22T22:48:32.900Z,93.21
2023-01-22T22:53:26.354Z,93.41
2023-01-22T22:58:20.807Z,93.67
2023-01-22T23:03:13.746Z,93.85
2023-01-22T23:08:07.923Z,93.60
2023-01-22T23:13:03.482Z,93.58
2023-01-22T23:17:59.048Z,93.62
2023-01-22T23:22:56.332Z,93.65
2023-01-22T23:27:49.918Z,94.04
2023-01-22T23:32:44.497Z,93.70
2023-01-22T23:37:37.723Z,93.80
2023-01-22T23:42:31.406Z,93.85
2023-01-22T23:47:27.337Z,93.77
2023-01-22T23:52:20.166Z,94.00
2023-01-22T23:57:13.328Z,93.97
